sensor_id;sensor_type;location;lat;lon;timestamp;P1;durP1;ratioP1;P2;durP2;ratioP2
75691;SDS011;64307;52.508;6.090;2023-05-08T00:00:22;15.40;;;12.07;;
75691;SDS011;64307;52.508;6.090;2023-05-08T00:02:48;17.10;;;12.75;;
75691;SDS011;64307;52.508;6.090;2023-05-08T00:05:13;17.20;;;12.77;;
75691;SDS011;64307;52.508;6.090;2023-05-08T00:07:39;17.05;;;12.88;;
75691;SDS011;64307;52.508;6.090;2023-05-08T00:10:05;16.13;;;11.93;;
75691;SDS011;64307;52.508;6.090;2023-05-08T00:12:32;18.40;;;12.23;;
75691;SDS011;64307;52.508;6.090;2023-05-08T00:14:57;15.77;;;12.07;;
75691;SDS011;64307;52.508;6.090;2023-05-08T00:17:22;16.35;;;12.27;;
75691;SDS011;64307;52.508;6.090;2023-05-08T00:19:48;17.08;;;12.45;;
75691;SDS011;64307;52.508;6.090;2023-05-08T00:22:13;15.35;;;11.38;;
75691;SDS011;64307;52.508;6.090;2023-05-08T00:24:40;16.27;;;12.13;;
75691;SDS011;64307;52.508;6.090;2023-05-08T00:27:05;16.50;;;12.27;;
75691;SDS011;64307;52.508;6.090;2023-05-08T00:29:32;17.25;;;12.10;;
75691;SDS011;64307;52.508;6.090;2023-05-08T00:31:57;17.92;;;12.32;;
75691;SDS011;64307;52.508;6.090;2023-05-08T00:34:23;19.67;;;12.50;;
75691;SDS011;64307;52.508;6.090;2023-05-08T00:36:50;18.15;;;13.07;;
75691;SDS011;64307;52.508;6.090;2023-05-08T00:39:15;17.33;;;12.60;;
75691;SDS011;64307;52.508;6.090;2023-05-08T00:41:40;17.02;;;12.65;;
75691;SDS011;64307;52.508;6.090;2023-05-08T00:44:06;18.05;;;12.45;;
75691;SDS011;64307;52.508;6.090;2023-05-08T00:46:32;18.73;;;12.73;;
75691;SDS011;64307;52.508;6.090;2023-05-08T00:48:57;18.27;;;13.23;;
75691;SDS011;64307;52.508;6.090;2023-05-08T00:51:24;20.23;;;13.43;;
75691;SDS011;64307;52.508;6.090;2023-05-08T00:53:50;16.63;;;11.88;;
75691;SDS011;64307;52.508;6.090;2023-05-08T00:56:16;18.48;;;12.40;;
75691;SDS011;64307;52.508;6.090;2023-05-08T00:58:42;18.40;;;13.18;;
75691;SDS011;64307;52.508;6.090;2023-05-08T01:01:08;19.63;;;12.27;;
75691;SDS011;64307;52.508;6.090;2023-05-08T01:03:35;19.23;;;13.27;;
75691;SDS011;64307;52.508;6.090;2023-05-08T01:06:02;19.10;;;13.50;;
75691;SDS011;64307;52.508;6.090;2023-05-08T01:08:27;20.80;;;13.50;;
75691;SDS011;64307;52.508;6.090;2023-05-08T01:16:59;19.80;;;13.43;;
75691;SDS011;64307;52.508;6.090;2023-05-08T01:25:15;22.73;;;13.60;;
75691;SDS011;64307;52.508;6.090;2023-05-08T01:30:46;19.27;;;12.32;;
75691;SDS011;64307;52.508;6.090;2023-05-08T01:36:20;21.02;;;13.63;;
75691;SDS011;64307;52.508;6.090;2023-05-08T01:41:41;19.95;;;12.80;;
75691;SDS011;64307;52.508;6.090;2023-05-08T01:44:15;20.35;;;13.55;;
75691;SDS011;64307;52.508;6.090;2023-05-08T01:46:47;19.63;;;13.00;;
75691;SDS011;64307;52.508;6.090;2023-05-08T01:49:57;22.15;;;13.75;;
75691;SDS011;64307;52.508;6.090;2023-05-08T01:52:47;18.98;;;13.25;;
75691;SDS011;64307;52.508;6.090;2023-05-08T01:54:59;18.77;;;13.50;;
75691;SDS011;64307;52.508;6.090;2023-05-08T01:57:30;23.00;;;13.18;;
75691;SDS011;64307;52.508;6.090;2023-05-08T01:59:58;22.10;;;13.80;;
75691;SDS011;64307;52.508;6.090;2023-05-08T02:02:27;22.23;;;15.02;;
75691;SDS011;64307;52.508;6.090;2023-05-08T02:04:54;20.65;;;13.48;;
75691;SDS011;64307;52.508;6.090;2023-05-08T02:07:20;19.40;;;13.30;;
75691;SDS011;64307;52.508;6.090;2023-05-08T02:09:47;19.52;;;14.13;;
75691;SDS011;64307;52.508;6.090;2023-05-08T02:12:13;21.20;;;13.60;;
75691;SDS011;64307;52.508;6.090;2023-05-08T02:14:41;20.23;;;13.00;;
75691;SDS011;64307;52.508;6.090;2023-05-08T02:17:08;20.75;;;13.05;;
75691;SDS011;64307;52.508;6.090;2023-05-08T02:19:35;21.25;;;13.88;;
75691;SDS011;64307;52.508;6.090;2023-05-08T02:22:03;21.08;;;13.77;;
75691;SDS011;64307;52.508;6.090;2023-05-08T02:24:31;20.65;;;14.15;;
75691;SDS011;64307;52.508;6.090;2023-05-08T02:26:58;18.08;;;12.98;;
75691;SDS011;64307;52.508;6.090;2023-05-08T02:29:24;20.20;;;13.20;;
75691;SDS011;64307;52.508;6.090;2023-05-08T02:31:51;20.77;;;13.50;;
75691;SDS011;64307;52.508;6.090;2023-05-08T02:34:18;21.27;;;12.82;;
75691;SDS011;64307;52.508;6.090;2023-05-08T02:36:45;20.23;;;13.15;;
75691;SDS011;64307;52.508;6.090;2023-05-08T02:39:12;19.83;;;13.52;;
75691;SDS011;64307;52.508;6.090;2023-05-08T02:41:40;20.55;;;13.95;;
75691;SDS011;64307;52.508;6.090;2023-05-08T02:44:06;20.77;;;13.88;;
75691;SDS011;64307;52.508;6.090;2023-05-08T02:46:43;23.33;;;13.88;;
75691;SDS011;64307;52.508;6.090;2023-05-08T02:49:20;20.02;;;13.63;;
75691;SDS011;64307;52.508;6.090;2023-05-08T02:51:53;20.60;;;13.65;;
75691;SDS011;64307;52.508;6.090;2023-05-08T02:57:31;20.48;;;13.18;;
75691;SDS011;64307;52.508;6.090;2023-05-08T03:00:02;18.70;;;12.63;;
75691;SDS011;64307;52.508;6.090;2023-05-08T03:02:52;22.42;;;13.80;;
75691;SDS011;64307;52.508;6.090;2023-05-08T03:05:23;24.65;;;14.48;;
75691;SDS011;64307;52.508;6.090;2023-05-08T03:07:53;22.63;;;13.75;;
75691;SDS011;64307;52.508;6.090;2023-05-08T03:10:23;20.58;;;13.90;;
75691;SDS011;64307;52.508;6.090;2023-05-08T03:12:52;23.10;;;14.75;;
75691;SDS011;64307;52.508;6.090;2023-05-08T03:15:32;20.38;;;13.10;;
75691;SDS011;64307;52.508;6.090;2023-05-08T03:18:05;21.00;;;13.57;;
75691;SDS011;64307;52.508;6.090;2023-05-08T03:20:36;19.90;;;13.07;;
75691;SDS011;64307;52.508;6.090;2023-05-08T03:23:04;22.00;;;14.18;;
75691;SDS011;64307;52.508;6.090;2023-05-08T03:25:32;22.95;;;13.25;;
75691;SDS011;64307;52.508;6.090;2023-05-08T03:27:59;24.50;;;14.43;;
75691;SDS011;64307;52.508;6.090;2023-05-08T03:30:28;21.08;;;13.90;;
75691;SDS011;64307;52.508;6.090;2023-05-08T03:32:56;22.63;;;14.57;;
75691;SDS011;64307;52.508;6.090;2023-05-08T03:35:22;22.50;;;14.15;;
75691;SDS011;64307;52.508;6.090;2023-05-08T03:37:51;21.80;;;13.00;;
75691;SDS011;64307;52.508;6.090;2023-05-08T03:40:17;24.38;;;14.05;;
75691;SDS011;64307;52.508;6.090;2023-05-08T03:42:43;23.83;;;14.35;;
75691;SDS011;64307;52.508;6.090;2023-05-08T03:45:09;21.25;;;14.30;;
75691;SDS011;64307;52.508;6.090;2023-05-08T03:47:36;23.83;;;14.05;;
75691;SDS011;64307;52.508;6.090;2023-05-08T03:50:02;21.02;;;13.57;;
75691;SDS011;64307;52.508;6.090;2023-05-08T03:52:27;21.50;;;13.88;;
75691;SDS011;64307;52.508;6.090;2023-05-08T03:54:54;21.98;;;14.70;;
75691;SDS011;64307;52.508;6.090;2023-05-08T03:57:20;23.40;;;14.60;;
75691;SDS011;64307;52.508;6.090;2023-05-08T04:00:00;24.23;;;14.30;;
75691;SDS011;64307;52.508;6.090;2023-05-08T04:05:10;22.85;;;14.20;;
75691;SDS011;64307;52.508;6.090;2023-05-08T04:07:55;24.13;;;14.88;;
75691;SDS011;64307;52.508;6.090;2023-05-08T04:10:45;20.42;;;13.45;;
75691;SDS011;64307;52.508;6.090;2023-05-08T04:13:15;21.88;;;14.00;;
75691;SDS011;64307;52.508;6.090;2023-05-08T04:15:50;21.90;;;14.35;;
75691;SDS011;64307;52.508;6.090;2023-05-08T04:20:49;22.73;;;14.15;;
75691;SDS011;64307;52.508;6.090;2023-05-08T04:23:17;21.58;;;13.63;;
75691;SDS011;64307;52.508;6.090;2023-05-08T04:25:45;22.92;;;14.43;;
75691;SDS011;64307;52.508;6.090;2023-05-08T04:28:13;21.52;;;13.98;;
75691;SDS011;64307;52.508;6.090;2023-05-08T04:30:39;20.98;;;13.35;;
75691;SDS011;64307;52.508;6.090;2023-05-08T04:33:05;21.35;;;13.93;;
75691;SDS011;64307;52.508;6.090;2023-05-08T04:35:34;20.30;;;13.85;;
75691;SDS011;64307;52.508;6.090;2023-05-08T04:38:00;20.60;;;13.80;;
75691;SDS011;64307;52.508;6.090;2023-05-08T04:40:26;22.38;;;14.38;;
75691;SDS011;64307;52.508;6.090;2023-05-08T04:42:52;24.25;;;14.90;;
75691;SDS011;64307;52.508;6.090;2023-05-08T04:45:17;19.70;;;13.85;;
75691;SDS011;64307;52.508;6.090;2023-05-08T04:47:43;20.48;;;13.73;;
75691;SDS011;64307;52.508;6.090;2023-05-08T04:50:08;20.83;;;13.48;;
75691;SDS011;64307;52.508;6.090;2023-05-08T04:52:34;20.05;;;13.65;;
75691;SDS011;64307;52.508;6.090;2023-05-08T04:54:59;19.30;;;13.02;;
75691;SDS011;64307;52.508;6.090;2023-05-08T04:57:25;18.23;;;12.80;;
75691;SDS011;64307;52.508;6.090;2023-05-08T04:59:50;18.23;;;12.50;;
75691;SDS011;64307;52.508;6.090;2023-05-08T05:02:15;17.88;;;11.45;;
75691;SDS011;64307;52.508;6.090;2023-05-08T05:04:41;19.27;;;12.27;;
75691;SDS011;64307;52.508;6.090;2023-05-08T05:07:06;18.35;;;13.02;;
75691;SDS011;64307;52.508;6.090;2023-05-08T05:09:31;17.37;;;12.57;;
75691;SDS011;64307;52.508;6.090;2023-05-08T05:12:04;17.92;;;12.52;;
75691;SDS011;64307;52.508;6.090;2023-05-08T05:14:30;17.02;;;12.02;;
75691;SDS011;64307;52.508;6.090;2023-05-08T05:16:55;17.65;;;11.23;;
75691;SDS011;64307;52.508;6.090;2023-05-08T05:19:21;15.53;;;11.73;;
75691;SDS011;64307;52.508;6.090;2023-05-08T05:21:46;15.85;;;11.57;;
75691;SDS011;64307;52.508;6.090;2023-05-08T05:24:12;14.73;;;11.23;;
75691;SDS011;64307;52.508;6.090;2023-05-08T05:26:38;15.77;;;12.87;;
75691;SDS011;64307;52.508;6.090;2023-05-08T05:29:03;14.35;;;10.98;;
75691;SDS011;64307;52.508;6.090;2023-05-08T05:31:28;13.73;;;10.95;;
75691;SDS011;64307;52.508;6.090;2023-05-08T05:33:54;14.57;;;11.10;;
75691;SDS011;64307;52.508;6.090;2023-05-08T05:36:20;13.48;;;10.90;;
75691;SDS011;64307;52.508;6.090;2023-05-08T05:38:45;13.10;;;10.85;;
75691;SDS011;64307;52.508;6.090;2023-05-08T05:41:10;13.20;;;10.48;;
75691;SDS011;64307;52.508;6.090;2023-05-08T05:43:36;13.13;;;10.83;;
75691;SDS011;64307;52.508;6.090;2023-05-08T05:46:03;13.47;;;11.00;;
75691;SDS011;64307;52.508;6.090;2023-05-08T05:48:30;13.95;;;10.80;;
75691;SDS011;64307;52.508;6.090;2023-05-08T05:50:55;13.23;;;10.75;;
75691;SDS011;64307;52.508;6.090;2023-05-08T05:53:21;12.43;;;10.57;;
75691;SDS011;64307;52.508;6.090;2023-05-08T05:55:46;13.18;;;11.07;;
75691;SDS011;64307;52.508;6.090;2023-05-08T05:58:12;14.90;;;11.47;;
75691;SDS011;64307;52.508;6.090;2023-05-08T06:00:38;13.38;;;10.70;;
75691;SDS011;64307;52.508;6.090;2023-05-08T06:03:03;14.57;;;11.47;;
75691;SDS011;64307;52.508;6.090;2023-05-08T06:05:29;15.02;;;11.70;;
75691;SDS011;64307;52.508;6.090;2023-05-08T06:07:54;14.07;;;11.57;;
75691;SDS011;64307;52.508;6.090;2023-05-08T06:10:21;16.48;;;12.35;;
75691;SDS011;64307;52.508;6.090;2023-05-08T06:12:46;15.07;;;11.50;;
75691;SDS011;64307;52.508;6.090;2023-05-08T06:15:11;15.17;;;11.83;;
75691;SDS011;64307;52.508;6.090;2023-05-08T06:17:38;14.65;;;11.43;;
75691;SDS011;64307;52.508;6.090;2023-05-08T06:20:04;18.33;;;11.85;;
75691;SDS011;64307;52.508;6.090;2023-05-08T06:22:30;18.02;;;12.63;;
75691;SDS011;64307;52.508;6.090;2023-05-08T06:24:56;15.82;;;11.13;;
75691;SDS011;64307;52.508;6.090;2023-05-08T06:27:22;15.73;;;11.65;;
75691;SDS011;64307;52.508;6.090;2023-05-08T06:29:48;16.27;;;12.30;;
75691;SDS011;64307;52.508;6.090;2023-05-08T06:32:20;15.85;;;11.65;;
75691;SDS011;64307;52.508;6.090;2023-05-08T06:34:46;17.15;;;11.80;;
75691;SDS011;64307;52.508;6.090;2023-05-08T06:37:12;16.48;;;11.73;;
75691;SDS011;64307;52.508;6.090;2023-05-08T06:39:37;16.52;;;11.88;;
75691;SDS011;64307;52.508;6.090;2023-05-08T06:42:02;17.10;;;12.38;;
75691;SDS011;64307;52.508;6.090;2023-05-08T06:44:30;16.58;;;12.13;;
75691;SDS011;64307;52.508;6.090;2023-05-08T06:46:56;16.05;;;11.32;;
75691;SDS011;64307;52.508;6.090;2023-05-08T06:49:21;17.02;;;11.93;;
75691;SDS011;64307;52.508;6.090;2023-05-08T06:51:47;17.50;;;12.63;;
75691;SDS011;64307;52.508;6.090;2023-05-08T06:54:12;16.50;;;11.65;;
75691;SDS011;64307;52.508;6.090;2023-05-08T06:56:37;16.58;;;12.38;;
75691;SDS011;64307;52.508;6.090;2023-05-08T06:59:03;17.17;;;12.95;;
75691;SDS011;64307;52.508;6.090;2023-05-08T07:01:28;17.17;;;12.30;;
75691;SDS011;64307;52.508;6.090;2023-05-08T07:03:56;16.10;;;11.55;;
75691;SDS011;64307;52.508;6.090;2023-05-08T07:06:21;17.10;;;12.20;;
75691;SDS011;64307;52.508;6.090;2023-05-08T07:08:47;17.88;;;11.75;;
75691;SDS011;64307;52.508;6.090;2023-05-08T07:11:12;15.82;;;11.70;;
75691;SDS011;64307;52.508;6.090;2023-05-08T07:13:38;15.70;;;12.07;;
75691;SDS011;64307;52.508;6.090;2023-05-08T07:16:09;19.27;;;12.93;;
75691;SDS011;64307;52.508;6.090;2023-05-08T07:18:34;15.57;;;11.38;;
75691;SDS011;64307;52.508;6.090;2023-05-08T07:21:00;15.98;;;11.63;;
75691;SDS011;64307;52.508;6.090;2023-05-08T07:23:27;15.45;;;12.02;;
75691;SDS011;64307;52.508;6.090;2023-05-08T07:25:52;14.70;;;11.75;;
75691;SDS011;64307;52.508;6.090;2023-05-08T07:28:18;17.02;;;12.75;;
75691;SDS011;64307;52.508;6.090;2023-05-08T07:30:43;17.02;;;13.30;;
75691;SDS011;64307;52.508;6.090;2023-05-08T07:33:09;19.73;;;12.48;;
75691;SDS011;64307;52.508;6.090;2023-05-08T07:35:36;15.30;;;12.80;;
75691;SDS011;64307;52.508;6.090;2023-05-08T07:38:03;16.88;;;12.27;;
75691;SDS011;64307;52.508;6.090;2023-05-08T07:40:28;17.10;;;12.57;;
75691;SDS011;64307;52.508;6.090;2023-05-08T07:42:54;16.63;;;12.85;;
75691;SDS011;64307;52.508;6.090;2023-05-08T07:45:19;16.13;;;12.93;;
75691;SDS011;64307;52.508;6.090;2023-05-08T07:47:48;20.92;;;12.95;;
75691;SDS011;64307;52.508;6.090;2023-05-08T07:50:15;15.00;;;12.43;;
75691;SDS011;64307;52.508;6.090;2023-05-08T07:52:40;15.05;;;12.00;;
75691;SDS011;64307;52.508;6.090;2023-05-08T07:55:06;16.08;;;13.05;;
75691;SDS011;64307;52.508;6.090;2023-05-08T07:57:38;16.88;;;14.55;;
75691;SDS011;64307;52.508;6.090;2023-05-08T08:00:05;16.02;;;13.00;;
75691;SDS011;64307;52.508;6.090;2023-05-08T08:02:31;16.55;;;13.25;;
75691;SDS011;64307;52.508;6.090;2023-05-08T08:04:57;13.90;;;12.13;;
75691;SDS011;64307;52.508;6.090;2023-05-08T08:07:22;14.20;;;11.83;;
75691;SDS011;64307;52.508;6.090;2023-05-08T08:09:47;13.95;;;12.27;;
75691;SDS011;64307;52.508;6.090;2023-05-08T08:12:13;14.43;;;12.20;;
75691;SDS011;64307;52.508;6.090;2023-05-08T08:14:38;14.45;;;12.57;;
75691;SDS011;64307;52.508;6.090;2023-05-08T08:17:03;16.60;;;12.32;;
75691;SDS011;64307;52.508;6.090;2023-05-08T08:19:29;14.85;;;12.32;;
75691;SDS011;64307;52.508;6.090;2023-05-08T08:21:54;16.23;;;13.05;;
75691;SDS011;64307;52.508;6.090;2023-05-08T08:24:20;16.02;;;13.50;;
75691;SDS011;64307;52.508;6.090;2023-05-08T08:26:45;15.10;;;13.40;;
75691;SDS011;64307;52.508;6.090;2023-05-08T08:29:11;16.83;;;13.88;;
75691;SDS011;64307;52.508;6.090;2023-05-08T08:31:36;18.55;;;14.52;;
75691;SDS011;64307;52.508;6.090;2023-05-08T08:34:02;14.35;;;12.32;;
75691;SDS011;64307;52.508;6.090;2023-05-08T08:36:27;15.93;;;13.47;;
75691;SDS011;64307;52.508;6.090;2023-05-08T08:38:52;16.58;;;13.88;;
75691;SDS011;64307;52.508;6.090;2023-05-08T08:41:18;17.95;;;14.00;;
75691;SDS011;64307;52.508;6.090;2023-05-08T08:43:43;22.25;;;15.32;;
75691;SDS011;64307;52.508;6.090;2023-05-08T08:46:11;17.73;;;14.05;;
75691;SDS011;64307;52.508;6.090;2023-05-08T08:48:41;20.23;;;14.60;;
75691;SDS011;64307;52.508;6.090;2023-05-08T08:51:11;18.85;;;13.85;;
75691;SDS011;64307;52.508;6.090;2023-05-08T08:53:41;18.38;;;14.65;;
75691;SDS011;64307;52.508;6.090;2023-05-08T08:56:10;16.75;;;13.75;;
75691;SDS011;64307;52.508;6.090;2023-05-08T08:58:37;19.92;;;15.30;;
75691;SDS011;64307;52.508;6.090;2023-05-08T09:01:12;19.65;;;15.13;;
75691;SDS011;64307;52.508;6.090;2023-05-08T09:03:40;19.73;;;15.55;;
75691;SDS011;64307;52.508;6.090;2023-05-08T09:06:05;18.02;;;15.27;;
75691;SDS011;64307;52.508;6.090;2023-05-08T09:08:31;19.30;;;15.82;;
75691;SDS011;64307;52.508;6.090;2023-05-08T09:10:57;21.67;;;15.18;;
75691;SDS011;64307;52.508;6.090;2023-05-08T09:13:25;22.65;;;15.27;;
75691;SDS011;64307;52.508;6.090;2023-05-08T09:15:52;20.55;;;15.25;;
75691;SDS011;64307;52.508;6.090;2023-05-08T09:18:17;22.60;;;16.83;;
75691;SDS011;64307;52.508;6.090;2023-05-08T09:20:43;20.88;;;15.70;;
75691;SDS011;64307;52.508;6.090;2023-05-08T09:23:08;23.80;;;17.25;;
75691;SDS011;64307;52.508;6.090;2023-05-08T09:25:40;19.15;;;16.20;;
75691;SDS011;64307;52.508;6.090;2023-05-08T09:28:16;23.88;;;17.55;;
75691;SDS011;64307;52.508;6.090;2023-05-08T09:30:49;20.42;;;16.27;;
75691;SDS011;64307;52.508;6.090;2023-05-08T09:33:18;23.42;;;16.70;;
75691;SDS011;64307;52.508;6.090;2023-05-08T09:35:44;21.38;;;16.58;;
75691;SDS011;64307;52.508;6.090;2023-05-08T09:41:11;19.73;;;15.07;;
75691;SDS011;64307;52.508;6.090;2023-05-08T09:43:41;21.00;;;15.05;;
75691;SDS011;64307;52.508;6.090;2023-05-08T09:48:52;18.85;;;15.00;;
75691;SDS011;64307;52.508;6.090;2023-05-08T09:51:20;19.05;;;14.48;;
75691;SDS011;64307;52.508;6.090;2023-05-08T09:53:46;21.27;;;15.55;;
75691;SDS011;64307;52.508;6.090;2023-05-08T09:56:15;22.20;;;18.00;;
75691;SDS011;64307;52.508;6.090;2023-05-08T09:58:52;20.27;;;15.43;;
75691;SDS011;64307;52.508;6.090;2023-05-08T10:01:33;19.63;;;15.85;;
75691;SDS011;64307;52.508;6.090;2023-05-08T10:04:00;19.48;;;15.52;;
75691;SDS011;64307;52.508;6.090;2023-05-08T10:06:27;17.33;;;14.60;;
75691;SDS011;64307;52.508;6.090;2023-05-08T10:11:39;17.98;;;14.35;;
75691;SDS011;64307;52.508;6.090;2023-05-08T10:14:05;17.52;;;13.95;;
75691;SDS011;64307;52.508;6.090;2023-05-08T10:16:35;15.02;;;12.75;;
75691;SDS011;64307;52.508;6.090;2023-05-08T10:19:04;18.92;;;14.77;;
75691;SDS011;64307;52.508;6.090;2023-05-08T10:21:36;17.30;;;13.95;;
75691;SDS011;64307;52.508;6.090;2023-05-08T10:24:04;14.88;;;12.93;;
75691;SDS011;64307;52.508;6.090;2023-05-08T10:26:36;16.70;;;14.07;;
75691;SDS011;64307;52.508;6.090;2023-05-08T10:29:06;18.77;;;14.85;;
75691;SDS011;64307;52.508;6.090;2023-05-08T10:31:34;17.60;;;14.52;;
75691;SDS011;64307;52.508;6.090;2023-05-08T10:34:01;19.83;;;14.65;;
75691;SDS011;64307;52.508;6.090;2023-05-08T10:36:28;19.15;;;14.93;;
75691;SDS011;64307;52.508;6.090;2023-05-08T10:38:56;23.05;;;14.18;;
75691;SDS011;64307;52.508;6.090;2023-05-08T10:41:22;20.02;;;14.10;;
75691;SDS011;64307;52.508;6.090;2023-05-08T10:43:48;22.17;;;15.60;;
75691;SDS011;64307;52.508;6.090;2023-05-08T10:46:20;19.55;;;14.95;;
75691;SDS011;64307;52.508;6.090;2023-05-08T10:57:28;20.27;;;15.68;;
75691;SDS011;64307;52.508;6.090;2023-05-08T10:59:54;20.67;;;15.20;;
75691;SDS011;64307;52.508;6.090;2023-05-08T11:02:26;23.35;;;17.08;;
75691;SDS011;64307;52.508;6.090;2023-05-08T11:05:15;23.02;;;17.02;;
75691;SDS011;64307;52.508;6.090;2023-05-08T11:07:53;24.50;;;16.00;;
75691;SDS011;64307;52.508;6.090;2023-05-08T11:10:20;23.15;;;16.77;;
75691;SDS011;64307;52.508;6.090;2023-05-08T11:12:47;27.02;;;16.65;;
75691;SDS011;64307;52.508;6.090;2023-05-08T11:15:14;20.63;;;15.23;;
75691;SDS011;64307;52.508;6.090;2023-05-08T11:17:40;23.67;;;17.63;;
75691;SDS011;64307;52.508;6.090;2023-05-08T11:20:10;22.42;;;16.38;;
75691;SDS011;64307;52.508;6.090;2023-05-08T11:22:36;24.08;;;17.52;;
75691;SDS011;64307;52.508;6.090;2023-05-08T11:25:11;24.77;;;17.77;;
75691;SDS011;64307;52.508;6.090;2023-05-08T11:30:25;25.60;;;18.50;;
75691;SDS011;64307;52.508;6.090;2023-05-08T11:38:25;28.00;;;19.05;;
75691;SDS011;64307;52.508;6.090;2023-05-08T11:41:03;30.08;;;21.45;;
75691;SDS011;64307;52.508;6.090;2023-05-08T11:46:00;32.88;;;22.70;;
75691;SDS011;64307;52.508;6.090;2023-05-08T11:48:28;32.15;;;22.23;;
75691;SDS011;64307;52.508;6.090;2023-05-08T11:50:53;30.40;;;21.83;;
75691;SDS011;64307;52.508;6.090;2023-05-08T11:53:19;32.25;;;22.33;;
75691;SDS011;64307;52.508;6.090;2023-05-08T11:55:48;34.08;;;23.27;;
75691;SDS011;64307;52.508;6.090;2023-05-08T11:58:14;31.40;;;22.45;;
75691;SDS011;64307;52.508;6.090;2023-05-08T12:00:40;32.88;;;23.27;;
75691;SDS011;64307;52.508;6.090;2023-05-08T12:03:10;30.35;;;22.42;;
75691;SDS011;64307;52.508;6.090;2023-05-08T12:05:37;29.75;;;21.80;;
75691;SDS011;64307;52.508;6.090;2023-05-08T12:08:04;30.17;;;21.90;;
75691;SDS011;64307;52.508;6.090;2023-05-08T12:10:30;27.75;;;19.73;;
75691;SDS011;64307;52.508;6.090;2023-05-08T12:12:56;29.45;;;21.45;;
75691;SDS011;64307;52.508;6.090;2023-05-08T12:15:21;27.42;;;20.35;;
75691;SDS011;64307;52.508;6.090;2023-05-08T12:17:46;27.45;;;20.73;;
75691;SDS011;64307;52.508;6.090;2023-05-08T12:20:15;27.73;;;18.73;;
75691;SDS011;64307;52.508;6.090;2023-05-08T12:22:48;24.80;;;18.88;;
75691;SDS011;64307;52.508;6.090;2023-05-08T12:25:15;28.13;;;18.80;;
75691;SDS011;64307;52.508;6.090;2023-05-08T12:27:41;21.13;;;15.75;;
75691;SDS011;64307;52.508;6.090;2023-05-08T12:30:08;21.42;;;17.20;;
75691;SDS011;64307;52.508;6.090;2023-05-08T12:32:41;25.77;;;18.77;;
75691;SDS011;64307;52.508;6.090;2023-05-08T12:35:08;28.17;;;19.98;;
75691;SDS011;64307;52.508;6.090;2023-05-08T12:37:35;25.35;;;19.60;;
75691;SDS011;64307;52.508;6.090;2023-05-08T12:40:00;25.70;;;19.80;;
75691;SDS011;64307;52.508;6.090;2023-05-08T12:42:46;30.17;;;20.95;;
75691;SDS011;64307;52.508;6.090;2023-05-08T12:45:19;29.42;;;20.75;;
75691;SDS011;64307;52.508;6.090;2023-05-08T12:47:46;27.40;;;20.20;;
75691;SDS011;64307;52.508;6.090;2023-05-08T12:50:17;27.40;;;20.45;;
75691;SDS011;64307;52.508;6.090;2023-05-08T12:52:48;29.05;;;20.52;;
75691;SDS011;64307;52.508;6.090;2023-05-08T12:55:26;32.55;;;21.05;;
75691;SDS011;64307;52.508;6.090;2023-05-08T12:58:03;30.65;;;21.90;;
75691;SDS011;64307;52.508;6.090;2023-05-08T13:00:37;33.20;;;22.90;;
75691;SDS011;64307;52.508;6.090;2023-05-08T13:03:04;33.03;;;23.13;;
75691;SDS011;64307;52.508;6.090;2023-05-08T13:05:31;31.65;;;23.48;;
75691;SDS011;64307;52.508;6.090;2023-05-08T13:07:59;31.27;;;23.15;;
75691;SDS011;64307;52.508;6.090;2023-05-08T13:10:53;29.88;;;22.48;;
75691;SDS011;64307;52.508;6.090;2023-05-08T13:13:20;31.38;;;23.13;;
75691;SDS011;64307;52.508;6.090;2023-05-08T13:15:47;31.85;;;23.35;;
75691;SDS011;64307;52.508;6.090;2023-05-08T13:18:14;30.67;;;23.85;;
75691;SDS011;64307;52.508;6.090;2023-05-08T13:20:40;31.45;;;23.83;;
75691;SDS011;64307;52.508;6.090;2023-05-08T13:23:06;31.98;;;25.23;;
75691;SDS011;64307;52.508;6.090;2023-05-08T13:25:34;28.20;;;23.05;;
75691;SDS011;64307;52.508;6.090;2023-05-08T13:28:00;30.98;;;23.70;;
75691;SDS011;64307;52.508;6.090;2023-05-08T13:30:26;32.55;;;25.63;;
75691;SDS011;64307;52.508;6.090;2023-05-08T13:32:52;33.65;;;26.10;;
75691;SDS011;64307;52.508;6.090;2023-05-08T13:35:17;30.55;;;24.48;;
75691;SDS011;64307;52.508;6.090;2023-05-08T13:37:44;32.05;;;24.35;;
75691;SDS011;64307;52.508;6.090;2023-05-08T13:40:10;31.83;;;25.67;;
75691;SDS011;64307;52.508;6.090;2023-05-08T13:42:36;30.33;;;23.70;;
75691;SDS011;64307;52.508;6.090;2023-05-08T13:45:02;29.38;;;22.42;;
75691;SDS011;64307;52.508;6.090;2023-05-08T13:47:28;26.92;;;22.25;;
75691;SDS011;64307;52.508;6.090;2023-05-08T13:49:54;29.23;;;24.63;;
75691;SDS011;64307;52.508;6.090;2023-05-08T13:52:19;27.35;;;22.38;;
75691;SDS011;64307;52.508;6.090;2023-05-08T13:54:44;24.98;;;21.27;;
75691;SDS011;64307;52.508;6.090;2023-05-08T13:57:10;21.00;;;18.75;;
75691;SDS011;64307;52.508;6.090;2023-05-08T13:59:35;18.83;;;16.80;;
75691;SDS011;64307;52.508;6.090;2023-05-08T14:02:00;18.25;;;15.85;;
75691;SDS011;64307;52.508;6.090;2023-05-08T14:04:26;19.92;;;17.75;;
75691;SDS011;64307;52.508;6.090;2023-05-08T14:06:51;19.17;;;17.03;;
75691;SDS011;64307;52.508;6.090;2023-05-08T14:09:17;18.95;;;16.08;;
75691;SDS011;64307;52.508;6.090;2023-05-08T14:11:42;19.17;;;15.30;;
75691;SDS011;64307;52.508;6.090;2023-05-08T14:14:07;16.50;;;14.63;;
75691;SDS011;64307;52.508;6.090;2023-05-08T14:16:32;15.55;;;13.85;;
75691;SDS011;64307;52.508;6.090;2023-05-08T14:18:58;18.20;;;14.50;;
75691;SDS011;64307;52.508;6.090;2023-05-08T14:21:23;17.27;;;15.35;;
75691;SDS011;64307;52.508;6.090;2023-05-08T14:23:48;20.88;;;17.83;;
75691;SDS011;64307;52.508;6.090;2023-05-08T14:26:13;21.50;;;18.33;;
75691;SDS011;64307;52.508;6.090;2023-05-08T14:28:39;22.15;;;17.92;;
75691;SDS011;64307;52.508;6.090;2023-05-08T14:31:04;26.40;;;19.83;;
75691;SDS011;64307;52.508;6.090;2023-05-08T14:33:30;27.13;;;21.27;;
75691;SDS011;64307;52.508;6.090;2023-05-08T14:35:55;22.38;;;18.85;;
75691;SDS011;64307;52.508;6.090;2023-05-08T14:38:20;21.53;;;18.53;;
75691;SDS011;64307;52.508;6.090;2023-05-08T14:40:48;20.23;;;16.73;;
75691;SDS011;64307;52.508;6.090;2023-05-08T14:43:14;18.48;;;15.85;;
75691;SDS011;64307;52.508;6.090;2023-05-08T14:45:40;21.35;;;17.15;;
75691;SDS011;64307;52.508;6.090;2023-05-08T14:48:05;22.13;;;17.97;;
75691;SDS011;64307;52.508;6.090;2023-05-08T14:50:30;21.33;;;17.30;;
75691;SDS011;64307;52.508;6.090;2023-05-08T14:52:55;20.27;;;16.87;;
75691;SDS011;64307;52.508;6.090;2023-05-08T14:55:21;19.97;;;16.23;;
75691;SDS011;64307;52.508;6.090;2023-05-08T14:57:46;19.30;;;16.08;;
75691;SDS011;64307;52.508;6.090;2023-05-08T15:00:12;20.73;;;16.98;;
75691;SDS011;64307;52.508;6.090;2023-05-08T15:02:38;17.85;;;15.27;;
75691;SDS011;64307;52.508;6.090;2023-05-08T15:05:04;18.88;;;15.18;;
75691;SDS011;64307;52.508;6.090;2023-05-08T15:07:29;19.45;;;15.35;;
75691;SDS011;64307;52.508;6.090;2023-05-08T15:09:55;20.85;;;17.50;;
75691;SDS011;64307;52.508;6.090;2023-05-08T15:12:20;20.57;;;16.33;;
75691;SDS011;64307;52.508;6.090;2023-05-08T15:14:45;20.15;;;15.95;;
75691;SDS011;64307;52.508;6.090;2023-05-08T15:17:10;20.10;;;16.27;;
75691;SDS011;64307;52.508;6.090;2023-05-08T15:19:36;23.03;;;18.07;;